sensor_id;sensor_type;location;lat;lon;timestamp;P1;durP1;ratioP1;P2;durP2;ratioP2
261;SDS011;114;48.260;10.988;2023-02-20T00:01:52;2.20;;;1.03;;
261;SDS011;114;48.260;10.988;2023-02-20T00:04:19;8.00;;;2.03;;
261;SDS011;114;48.260;10.988;2023-02-20T00:06:44;2.17;;;1.83;;
261;SDS011;114;48.260;10.988;2023-02-20T00:09:11;3.50;;;0.67;;
261;SDS011;114;48.260;10.988;2023-02-20T00:11:37;9.23;;;1.33;;
261;SDS011;114;48.260;10.988;2023-02-20T00:14:03;1.70;;;1.10;;
261;SDS011;114;48.260;10.988;2023-02-20T00:16:28;2.93;;;1.30;;
261;SDS011;114;48.260;10.988;2023-02-20T00:18:54;2.93;;;1.10;;
261;SDS011;114;48.260;10.988;2023-02-20T00:21:20;1.17;;;0.80;;
261;SDS011;114;48.260;10.988;2023-02-20T00:23:46;5.97;;;1.30;;
261;SDS011;114;48.260;10.988;2023-02-20T00:26:12;1.20;;;1.10;;
261;SDS011;114;48.260;10.988;2023-02-20T00:28:38;1.83;;;1.27;;
261;SDS011;114;48.260;10.988;2023-02-20T00:31:06;4.53;;;1.93;;
261;SDS011;114;48.260;10.988;2023-02-20T00:33:33;9.50;;;1.30;;
261;SDS011;114;48.260;10.988;2023-02-20T00:36:00;2.03;;;1.13;;
261;SDS011;114;48.260;10.988;2023-02-20T00:38:26;7.83;;;1.17;;
261;SDS011;114;48.260;10.988;2023-02-20T00:40:52;5.60;;;1.43;;
261;SDS011;114;48.260;10.988;2023-02-20T00:43:18;1.27;;;1.17;;
261;SDS011;114;48.260;10.988;2023-02-20T00:45:43;1.93;;;1.40;;
261;SDS011;114;48.260;10.988;2023-02-20T00:48:09;9.83;;;4.33;;
261;SDS011;114;48.260;10.988;2023-02-20T00:50:35;15.97;;;5.40;;
261;SDS011;114;48.260;10.988;2023-02-20T00:53:01;6.73;;;3.43;;
261;SDS011;114;48.260;10.988;2023-02-20T00:55:27;11.07;;;4.67;;
261;SDS011;114;48.260;10.988;2023-02-20T00:57:53;17.90;;;5.77;;
261;SDS011;114;48.260;10.988;2023-02-20T01:00:26;14.70;;;6.23;;
261;SDS011;114;48.260;10.988;2023-02-20T01:02:53;18.90;;;7.90;;
261;SDS011;114;48.260;10.988;2023-02-20T01:05:20;26.30;;;10.33;;
261;SDS011;114;48.260;10.988;2023-02-20T01:07:46;7.20;;;3.33;;
261;SDS011;114;48.260;10.988;2023-02-20T01:10:12;6.30;;;3.90;;
261;SDS011;114;48.260;10.988;2023-02-20T01:12:38;7.30;;;4.77;;
261;SDS011;114;48.260;10.988;2023-02-20T01:15:05;7.03;;;3.47;;
261;SDS011;114;48.260;10.988;2023-02-20T01:17:32;7.53;;;3.17;;
261;SDS011;114;48.260;10.988;2023-02-20T01:19:57;7.80;;;5.23;;
261;SDS011;114;48.260;10.988;2023-02-20T01:22:23;4.70;;;2.20;;
261;SDS011;114;48.260;10.988;2023-02-20T01:24:49;3.57;;;1.77;;
261;SDS011;114;48.260;10.988;2023-02-20T01:27:15;4.43;;;2.47;;
261;SDS011;114;48.260;10.988;2023-02-20T01:29:41;4.00;;;3.70;;
261;SDS011;114;48.260;10.988;2023-02-20T01:32:08;4.70;;;2.07;;
261;SDS011;114;48.260;10.988;2023-02-20T01:34:36;2.77;;;2.10;;
261;SDS011;114;48.260;10.988;2023-02-20T01:37:02;2.80;;;1.47;;
261;SDS011;114;48.260;10.988;2023-02-20T01:39:28;8.57;;;1.93;;
261;SDS011;114;48.260;10.988;2023-02-20T01:42:02;3.60;;;1.90;;
261;SDS011;114;48.260;10.988;2023-02-20T01:44:32;1.60;;;1.50;;
261;SDS011;114;48.260;10.988;2023-02-20T01:47:00;2.00;;;1.90;;
261;SDS011;114;48.260;10.988;2023-02-20T01:49:41;3.50;;;1.40;;
261;SDS011;114;48.260;10.988;2023-02-20T01:52:16;6.90;;;1.70;;
261;SDS011;114;48.260;10.988;2023-02-20T01:54:46;4.87;;;1.73;;
261;SDS011;114;48.260;10.988;2023-02-20T01:57:19;3.47;;;1.57;;
261;SDS011;114;48.260;10.988;2023-02-20T01:59:48;2.73;;;1.80;;
261;SDS011;114;48.260;10.988;2023-02-20T02:02:16;2.07;;;1.60;;
261;SDS011;114;48.260;10.988;2023-02-20T02:04:42;5.30;;;1.90;;
261;SDS011;114;48.260;10.988;2023-02-20T02:07:09;5.13;;;1.60;;
261;SDS011;114;48.260;10.988;2023-02-20T02:12:16;4.47;;;1.53;;
261;SDS011;114;48.260;10.988;2023-02-20T02:14:42;3.03;;;1.60;;
261;SDS011;114;48.260;10.988;2023-02-20T02:20:11;2.73;;;1.63;;
261;SDS011;114;48.260;10.988;2023-02-20T02:25:54;1.80;;;1.20;;
261;SDS011;114;48.260;10.988;2023-02-20T02:40:01;2.10;;;1.50;;
261;SDS011;114;48.260;10.988;2023-02-20T02:42:56;9.30;;;2.47;;
261;SDS011;114;48.260;10.988;2023-02-20T02:45:27;6.40;;;1.97;;
261;SDS011;114;48.260;10.988;2023-02-20T02:50:43;5.80;;;1.63;;
261;SDS011;114;48.260;10.988;2023-02-20T02:53:11;3.23;;;1.40;;
261;SDS011;114;48.260;10.988;2023-02-20T02:55:38;3.07;;;1.60;;
261;SDS011;114;48.260;10.988;2023-02-20T02:58:04;2.50;;;1.73;;
261;SDS011;114;48.260;10.988;2023-02-20T03:00:38;1.53;;;1.43;;
261;SDS011;114;48.260;10.988;2023-02-20T03:05:38;8.53;;;2.50;;
261;SDS011;114;48.260;10.988;2023-02-20T03:08:32;2.60;;;2.03;;
261;SDS011;114;48.260;10.988;2023-02-20T03:11:08;6.10;;;2.33;;
261;SDS011;114;48.260;10.988;2023-02-20T03:13:52;2.20;;;1.50;;
261;SDS011;114;48.260;10.988;2023-02-20T03:16:42;5.03;;;1.87;;
261;SDS011;114;48.260;10.988;2023-02-20T03:19:32;6.53;;;2.07;;
261;SDS011;114;48.260;10.988;2023-02-20T03:22:06;1.70;;;1.57;;
261;SDS011;114;48.260;10.988;2023-02-20T03:24:55;4.40;;;2.00;;
261;SDS011;114;48.260;10.988;2023-02-20T03:30:03;3.00;;;1.80;;
261;SDS011;114;48.260;10.988;2023-02-20T03:32:33;2.33;;;1.50;;
261;SDS011;114;48.260;10.988;2023-02-20T03:35:18;5.83;;;1.87;;
261;SDS011;114;48.260;10.988;2023-02-20T03:38:06;5.17;;;2.50;;
261;SDS011;114;48.260;10.988;2023-02-20T03:40:52;8.60;;;1.90;;
261;SDS011;114;48.260;10.988;2023-02-20T03:43:39;2.73;;;2.40;;
261;SDS011;114;48.260;10.988;2023-02-20T03:46:09;8.53;;;1.60;;
261;SDS011;114;48.260;10.988;2023-02-20T03:51:13;3.30;;;2.10;;
261;SDS011;114;48.260;10.988;2023-02-20T03:53:39;5.20;;;2.23;;
261;SDS011;114;48.260;10.988;2023-02-20T03:56:11;6.93;;;2.43;;
261;SDS011;114;48.260;10.988;2023-02-20T03:58:43;9.77;;;2.50;;
261;SDS011;114;48.260;10.988;2023-02-20T04:01:12;6.60;;;2.93;;
261;SDS011;114;48.260;10.988;2023-02-20T04:03:42;2.53;;;1.73;;
261;SDS011;114;48.260;10.988;2023-02-20T04:06:10;2.93;;;1.97;;
261;SDS011;114;48.260;10.988;2023-02-20T04:08:42;3.10;;;2.07;;
261;SDS011;114;48.260;10.988;2023-02-20T04:11:23;2.80;;;2.50;;
261;SDS011;114;48.260;10.988;2023-02-20T04:13:52;5.03;;;2.47;;
261;SDS011;114;48.260;10.988;2023-02-20T04:16:19;2.50;;;2.10;;
261;SDS011;114;48.260;10.988;2023-02-20T04:18:46;2.13;;;2.03;;
261;SDS011;114;48.260;10.988;2023-02-20T04:23:56;2.90;;;1.70;;
261;SDS011;114;48.260;10.988;2023-02-20T04:26:29;2.70;;;2.03;;
261;SDS011;114;48.260;10.988;2023-02-20T04:28:55;4.30;;;2.80;;
261;SDS011;114;48.260;10.988;2023-02-20T04:31:21;5.70;;;2.53;;
261;SDS011;114;48.260;10.988;2023-02-20T04:33:47;3.00;;;1.70;;
261;SDS011;114;48.260;10.988;2023-02-20T04:36:13;9.73;;;2.47;;
261;SDS011;114;48.260;10.988;2023-02-20T04:38:39;5.03;;;2.03;;
261;SDS011;114;48.260;10.988;2023-02-20T04:41:05;3.03;;;2.27;;
261;SDS011;114;48.260;10.988;2023-02-20T04:43:30;7.30;;;2.00;;
261;SDS011;114;48.260;10.988;2023-02-20T04:45:56;3.33;;;2.10;;
261;SDS011;114;48.260;10.988;2023-02-20T04:48:22;4.00;;;2.73;;
261;SDS011;114;48.260;10.988;2023-02-20T04:50:48;3.73;;;2.27;;
261;SDS011;114;48.260;10.988;2023-02-20T04:53:13;1.97;;;1.80;;
261;SDS011;114;48.260;10.988;2023-02-20T04:55:39;2.47;;;2.27;;
261;SDS011;114;48.260;10.988;2023-02-20T04:58:05;4.23;;;1.90;;
261;SDS011;114;48.260;10.988;2023-02-20T05:00:30;14.90;;;3.03;;
261;SDS011;114;48.260;10.988;2023-02-20T05:02:56;3.10;;;2.13;;
261;SDS011;114;48.260;10.988;2023-02-20T05:05:23;4.00;;;2.87;;
261;SDS011;114;48.260;10.988;2023-02-20T05:07:57;2.70;;;2.17;;
261;SDS011;114;48.260;10.988;2023-02-20T05:10:25;2.57;;;2.37;;
261;SDS011;114;48.260;10.988;2023-02-20T05:12:52;4.17;;;2.13;;
261;SDS011;114;48.260;10.988;2023-02-20T05:15:18;14.43;;;3.00;;
261;SDS011;114;48.260;10.988;2023-02-20T05:17:44;4.50;;;2.40;;
261;SDS011;114;48.260;10.988;2023-02-20T05:20:11;4.07;;;2.50;;
261;SDS011;114;48.260;10.988;2023-02-20T05:22:38;3.13;;;2.43;;
261;SDS011;114;48.260;10.988;2023-02-20T05:25:03;6.93;;;2.80;;
261;SDS011;114;48.260;10.988;2023-02-20T05:27:30;2.87;;;2.67;;
261;SDS011;114;48.260;10.988;2023-02-20T05:29:56;7.47;;;3.23;;
261;SDS011;114;48.260;10.988;2023-02-20T05:32:24;3.20;;;2.90;;
261;SDS011;114;48.260;10.988;2023-02-20T05:34:51;8.10;;;2.90;;
261;SDS011;114;48.260;10.988;2023-02-20T05:37:18;4.53;;;3.33;;
261;SDS011;114;48.260;10.988;2023-02-20T05:39:44;8.00;;;2.53;;
261;SDS011;114;48.260;10.988;2023-02-20T05:42:11;7.33;;;2.20;;
261;SDS011;114;48.260;10.988;2023-02-20T05:44:37;6.27;;;2.53;;
261;SDS011;114;48.260;10.988;2023-02-20T05:47:03;7.13;;;2.67;;
261;SDS011;114;48.260;10.988;2023-02-20T05:49:29;3.53;;;3.13;;
261;SDS011;114;48.260;10.988;2023-02-20T05:51:56;3.97;;;2.63;;
261;SDS011;114;48.260;10.988;2023-02-20T05:54:22;3.60;;;2.60;;
261;SDS011;114;48.260;10.988;2023-02-20T05:56:49;7.57;;;3.40;;
261;SDS011;114;48.260;10.988;2023-02-20T05:59:19;4.93;;;2.90;;
261;SDS011;114;48.260;10.988;2023-02-20T06:01:46;7.10;;;3.00;;
261;SDS011;114;48.260;10.988;2023-02-20T06:04:16;4.10;;;2.53;;
261;SDS011;114;48.260;10.988;2023-02-20T06:06:43;17.90;;;4.80;;
261;SDS011;114;48.260;10.988;2023-02-20T06:09:09;9.03;;;3.60;;
261;SDS011;114;48.260;10.988;2023-02-20T06:11:36;8.93;;;5.20;;
261;SDS011;114;48.260;10.988;2023-02-20T06:14:04;8.23;;;4.50;;
261;SDS011;114;48.260;10.988;2023-02-20T06:16:31;4.80;;;3.30;;
261;SDS011;114;48.260;10.988;2023-02-20T06:18:58;5.73;;;3.27;;
261;SDS011;114;48.260;10.988;2023-02-20T06:21:25;3.83;;;3.03;;
261;SDS011;114;48.260;10.988;2023-02-20T06:23:51;3.60;;;3.10;;
261;SDS011;114;48.260;10.988;2023-02-20T06:26:18;3.37;;;2.90;;
261;SDS011;114;48.260;10.988;2023-02-20T06:28:44;7.57;;;3.90;;
261;SDS011;114;48.260;10.988;2023-02-20T06:31:11;5.50;;;3.43;;
261;SDS011;114;48.260;10.988;2023-02-20T06:33:37;4.40;;;3.00;;
261;SDS011;114;48.260;10.988;2023-02-20T06:36:03;3.33;;;3.10;;
261;SDS011;114;48.260;10.988;2023-02-20T06:38:30;3.83;;;2.87;;
261;SDS011;114;48.260;10.988;2023-02-20T06:40:56;2.90;;;2.70;;
261;SDS011;114;48.260;10.988;2023-02-20T06:43:21;8.50;;;2.50;;
261;SDS011;114;48.260;10.988;2023-02-20T06:45:47;2.70;;;2.50;;
261;SDS011;114;48.260;10.988;2023-02-20T06:48:13;2.83;;;2.73;;
261;SDS011;114;48.260;10.988;2023-02-20T06:50:39;4.83;;;3.00;;
261;SDS011;114;48.260;10.988;2023-02-20T06:53:06;7.20;;;2.87;;
261;SDS011;114;48.260;10.988;2023-02-20T06:55:32;2.83;;;2.40;;
261;SDS011;114;48.260;10.988;2023-02-20T06:57:58;4.60;;;2.93;;
261;SDS011;114;48.260;10.988;2023-02-20T07:00:24;3.13;;;2.50;;
261;SDS011;114;48.260;10.988;2023-02-20T07:02:50;5.53;;;2.63;;
261;SDS011;114;48.260;10.988;2023-02-20T07:05:16;4.80;;;2.43;;
261;SDS011;114;48.260;10.988;2023-02-20T07:07:41;3.43;;;3.10;;
261;SDS011;114;48.260;10.988;2023-02-20T07:10:07;5.10;;;2.80;;
261;SDS011;114;48.260;10.988;2023-02-20T07:12:33;3.13;;;2.20;;
261;SDS011;114;48.260;10.988;2023-02-20T07:15:03;4.77;;;2.30;;
261;SDS011;114;48.260;10.988;2023-02-20T07:17:30;2.70;;;2.50;;
261;SDS011;114;48.260;10.988;2023-02-20T07:19:56;3.43;;;3.00;;
261;SDS011;114;48.260;10.988;2023-02-20T07:22:23;8.13;;;3.00;;
261;SDS011;114;48.260;10.988;2023-02-20T07:24:52;3.00;;;2.60;;
261;SDS011;114;48.260;10.988;2023-02-20T07:27:19;4.20;;;2.70;;
261;SDS011;114;48.260;10.988;2023-02-20T07:29:45;3.23;;;2.63;;
261;SDS011;114;48.260;10.988;2023-02-20T07:32:12;2.73;;;2.40;;
261;SDS011;114;48.260;10.988;2023-02-20T07:34:38;3.97;;;2.97;;
261;SDS011;114;48.260;10.988;2023-02-20T07:37:04;3.30;;;3.00;;
261;SDS011;114;48.260;10.988;2023-02-20T07:39:30;3.37;;;2.33;;
261;SDS011;114;48.260;10.988;2023-02-20T07:41:56;5.93;;;2.90;;
261;SDS011;114;48.260;10.988;2023-02-20T07:44:22;4.30;;;3.00;;
261;SDS011;114;48.260;10.988;2023-02-20T07:46:47;4.13;;;2.90;;
261;SDS011;114;48.260;10.988;2023-02-20T07:49:13;4.53;;;3.30;;
261;SDS011;114;48.260;10.988;2023-02-20T07:51:39;3.83;;;2.53;;
261;SDS011;114;48.260;10.988;2023-02-20T07:54:05;11.27;;;3.23;;
261;SDS011;114;48.260;10.988;2023-02-20T07:56:30;7.60;;;2.97;;
261;SDS011;114;48.260;10.988;2023-02-20T07:58:56;4.90;;;2.80;;
261;SDS011;114;48.260;10.988;2023-02-20T08:01:22;5.43;;;2.70;;
261;SDS011;114;48.260;10.988;2023-02-20T08:03:48;8.30;;;3.63;;
261;SDS011;114;48.260;10.988;2023-02-20T08:06:17;2.83;;;2.73;;
261;SDS011;114;48.260;10.988;2023-02-20T08:08:50;4.17;;;3.17;;
261;SDS011;114;48.260;10.988;2023-02-20T08:11:17;13.43;;;3.10;;
261;SDS011;114;48.260;10.988;2023-02-20T08:13:43;3.97;;;2.87;;
261;SDS011;114;48.260;10.988;2023-02-20T08:16:10;2.70;;;2.50;;
261;SDS011;114;48.260;10.988;2023-02-20T08:18:35;5.97;;;3.80;;
261;SDS011;114;48.260;10.988;2023-02-20T08:21:01;6.60;;;3.30;;
261;SDS011;114;48.260;10.988;2023-02-20T08:23:28;9.13;;;3.50;;
261;SDS011;114;48.260;10.988;2023-02-20T08:25:55;5.70;;;3.60;;
261;SDS011;114;48.260;10.988;2023-02-20T08:28:20;10.10;;;3.87;;
261;SDS011;114;48.260;10.988;2023-02-20T08:30:46;4.70;;;2.90;;
261;SDS011;114;48.260;10.988;2023-02-20T08:33:12;5.37;;;3.13;;
261;SDS011;114;48.260;10.988;2023-02-20T08:35:39;3.93;;;2.67;;
261;SDS011;114;48.260;10.988;2023-02-20T08:38:05;4.50;;;2.70;;
261;SDS011;114;48.260;10.988;2023-02-20T08:40:45;4.13;;;2.90;;
261;SDS011;114;48.260;10.988;2023-02-20T08:43:11;5.70;;;2.43;;
261;SDS011;114;48.260;10.988;2023-02-20T08:45:37;3.43;;;2.57;;
261;SDS011;114;48.260;10.988;2023-02-20T08:48:03;7.60;;;2.23;;
261;SDS011;114;48.260;10.988;2023-02-20T08:50:28;3.57;;;2.43;;
261;SDS011;114;48.260;10.988;2023-02-20T08:52:54;3.30;;;2.03;;
261;SDS011;114;48.260;10.988;2023-02-20T08:55:20;6.13;;;2.70;;
261;SDS011;114;48.260;10.988;2023-02-20T08:57:46;3.87;;;2.30;;
261;SDS011;114;48.260;10.988;2023-02-20T09:00:14;9.97;;;3.27;;
261;SDS011;114;48.260;10.988;2023-02-20T09:02:41;4.57;;;2.90;;
261;SDS011;114;48.260;10.988;2023-02-20T09:05:07;8.40;;;2.30;;
261;SDS011;114;48.260;10.988;2023-02-20T09:07:33;4.10;;;2.40;;
261;SDS011;114;48.260;10.988;2023-02-20T09:09:59;13.00;;;3.20;;
261;SDS011;114;48.260;10.988;2023-02-20T09:12:25;5.50;;;2.17;;
261;SDS011;114;48.260;10.988;2023-02-20T09:14:51;6.43;;;3.30;;
261;SDS011;114;48.260;10.988;2023-02-20T09:17:16;2.53;;;1.93;;
261;SDS011;114;48.260;10.988;2023-02-20T09:19:42;2.27;;;2.07;;
261;SDS011;114;48.260;10.988;2023-02-20T09:22:08;18.57;;;3.30;;
261;SDS011;114;48.260;10.988;2023-02-20T09:24:34;3.00;;;2.10;;
261;SDS011;114;48.260;10.988;2023-02-20T09:27:00;2.33;;;2.13;;
261;SDS011;114;48.260;10.988;2023-02-20T09:29:27;2.07;;;1.87;;
261;SDS011;114;48.260;10.988;2023-02-20T09:31:53;2.97;;;2.47;;
261;SDS011;114;48.260;10.988;2023-02-20T09:34:19;5.40;;;2.50;;
261;SDS011;114;48.260;10.988;2023-02-20T09:36:45;2.80;;;2.07;;
261;SDS011;114;48.260;10.988;2023-02-20T09:39:11;6.13;;;2.90;;
261;SDS011;114;48.260;10.988;2023-02-20T09:50:12;2.97;;;1.87;;
261;SDS011;114;48.260;10.988;2023-02-20T09:52:43;8.10;;;2.00;;
261;SDS011;114;48.260;10.988;2023-02-20T09:55:14;2.40;;;1.77;;
261;SDS011;114;48.260;10.988;2023-02-20T09:57:46;4.30;;;1.83;;
261;SDS011;114;48.260;10.988;2023-02-20T10:00:21;5.07;;;1.73;;
261;SDS011;114;48.260;10.988;2023-02-20T10:03:04;3.30;;;2.47;;
261;SDS011;114;48.260;10.988;2023-02-20T10:05:40;2.07;;;1.60;;
261;SDS011;114;48.260;10.988;2023-02-20T10:08:08;5.03;;;2.97;;
261;SDS011;114;48.260;10.988;2023-02-20T10:10:35;7.70;;;4.03;;
261;SDS011;114;48.260;10.988;2023-02-20T10:13:20;6.53;;;3.37;;
261;SDS011;114;48.260;10.988;2023-02-20T10:16:19;3.00;;;2.70;;
261;SDS011;114;48.260;10.988;2023-02-20T10:19:28;4.27;;;3.30;;
261;SDS011;114;48.260;10.988;2023-02-20T10:27:40;3.00;;;2.03;;
261;SDS011;114;48.260;10.988;2023-02-20T10:30:22;2.00;;;1.80;;
261;SDS011;114;48.260;10.988;2023-02-20T10:33:09;2.43;;;1.60;;
261;SDS011;114;48.260;10.988;2023-02-20T10:36:15;2.30;;;1.63;;
261;SDS011;114;48.260;10.988;2023-02-20T10:50:09;8.80;;;1.90;;
261;SDS011;114;48.260;10.988;2023-02-20T10:52:51;3.17;;;1.80;;
261;SDS011;114;48.260;10.988;2023-02-20T10:55:25;3.33;;;1.73;;
261;SDS011;114;48.260;10.988;2023-02-20T10:58:15;1.73;;;1.53;;
261;SDS011;114;48.260;10.988;2023-02-20T11:00:48;4.13;;;1.93;;
261;SDS011;114;48.260;10.988;2023-02-20T11:03:22;3.73;;;1.60;;
261;SDS011;114;48.260;10.988;2023-02-20T11:05:56;2.90;;;2.10;;
261;SDS011;114;48.260;10.988;2023-02-20T11:08:27;2.00;;;1.80;;
261;SDS011;114;48.260;10.988;2023-02-20T11:10:54;3.73;;;2.13;;
261;SDS011;114;48.260;10.988;2023-02-20T11:13:24;2.93;;;2.10;;
261;SDS011;114;48.260;10.988;2023-02-20T11:15:52;3.67;;;1.60;;
261;SDS011;114;48.260;10.988;2023-02-20T11:18:25;2.50;;;1.43;;
261;SDS011;114;48.260;10.988;2023-02-20T11:20:58;2.00;;;1.67;;
261;SDS011;114;48.260;10.988;2023-02-20T11:23:38;3.80;;;1.60;;
261;SDS011;114;48.260;10.988;2023-02-20T11:29:31;6.30;;;1.70;;
261;SDS011;114;48.260;10.988;2023-02-20T11:31:34;3.10;;;1.23;;
261;SDS011;114;48.260;10.988;2023-02-20T11:34:01;1.80;;;1.70;;
261;SDS011;114;48.260;10.988;2023-02-20T11:36:39;3.10;;;1.53;;
261;SDS011;114;48.260;10.988;2023-02-20T11:39:19;1.73;;;1.50;;
261;SDS011;114;48.260;10.988;2023-02-20T11:42:03;3.50;;;1.80;;
261;SDS011;114;48.260;10.988;2023-02-20T11:44:34;3.00;;;1.33;;
261;SDS011;114;48.260;10.988;2023-02-20T11:47:10;1.60;;;1.40;;
261;SDS011;114;48.260;10.988;2023-02-20T11:49:45;3.80;;;1.73;;
261;SDS011;114;48.260;10.988;2023-02-20T11:52:16;3.23;;;2.87;;
261;SDS011;114;48.260;10.988;2023-02-20T11:54:43;3.27;;;1.20;;
261;SDS011;114;48.260;10.988;2023-02-20T11:59:41;2.70;;;1.07;;
261;SDS011;114;48.260;10.988;2023-02-20T12:04:40;5.50;;;1.33;;
261;SDS011;114;48.260;10.988;2023-02-20T12:07:33;1.40;;;1.30;;
261;SDS011;114;48.260;10.988;2023-02-20T12:10:47;3.73;;;1.00;;
261;SDS011;114;48.260;10.988;2023-02-20T12:13:16;1.60;;;1.30;;
261;SDS011;114;48.260;10.988;2023-02-20T12:15:43;1.13;;;0.90;;
261;SDS011;114;48.260;10.988;2023-02-20T12:28:57;1.43;;;0.90;;
261;SDS011;114;48.260;10.988;2023-02-20T12:34:16;5.07;;;1.60;;
261;SDS011;114;48.260;10.988;2023-02-20T12:37:01;1.43;;;1.33;;
261;SDS011;114;48.260;10.988;2023-02-20T12:39:45;1.30;;;1.20;;
261;SDS011;114;48.260;10.988;2023-02-20T12:47:55;1.53;;;1.30;;
261;SDS011;114;48.260;10.988;2023-02-20T12:59:19;4.67;;;2.30;;
261;SDS011;114;48.260;10.988;2023-02-20T13:01:51;3.00;;;2.07;;
261;SDS011;114;48.260;10.988;2023-02-20T13:06:59;4.83;;;1.80;;
261;SDS011;114;48.260;10.988;2023-02-20T13:09:37;4.53;;;3.93;;
261;SDS011;114;48.260;10.988;2023-02-20T13:12:17;4.73;;;1.53;;
261;SDS011;114;48.260;10.988;2023-02-20T13:15:26;2.80;;;2.57;;
261;SDS011;114;48.260;10.988;2023-02-20T13:17:40;2.43;;;2.23;;
261;SDS011;114;48.260;10.988;2023-02-20T13:20:21;3.43;;;2.80;;
261;SDS011;114;48.260;10.988;2023-02-20T13:25:34;2.50;;;1.50;;
261;SDS011;114;48.260;10.988;2023-02-20T13:28:23;8.23;;;2.60;;
261;SDS011;114;48.260;10.988;2023-02-20T13:33:41;4.20;;;3.10;;
261;SDS011;114;48.260;10.988;2023-02-20T13:44:50;4.27;;;2.30;;
261;SDS011;114;48.260;10.988;2023-02-20T13:55:42;5.43;;;1.40;;
261;SDS011;114;48.260;10.988;2023-02-20T13:57:52;3.37;;;1.40;;
261;SDS011;114;48.260;10.988;2023-02-20T14:03:18;2.13;;;1.90;;
261;SDS011;114;48.260;10.988;2023-02-20T14:06:03;1.23;;;1.00;;
261;SDS011;114;48.260;10.988;2023-02-20T14:08:32;1.43;;;1.27;;
261;SDS011;114;48.260;10.988;2023-02-20T14:13:39;0.73;;;0.73;;
261;SDS011;114;48.260;10.988;2023-02-20T14:18:58;7.07;;;0.90;;
261;SDS011;114;48.260;10.988;2023-02-20T14:21:27;1.00;;;0.90;;
261;SDS011;114;48.260;10.988;2023-02-20T14:23:54;2.30;;;0.60;;
261;SDS011;114;48.260;10.988;2023-02-20T14:28:52;3.67;;;1.00;;
261;SDS011;114;48.260;10.988;2023-02-20T14:31:34;1.07;;;0.97;;
261;SDS011;114;48.260;10.988;2023-02-20T14:34:07;10.10;;;0.90;;
261;SDS011;114;48.260;10.988;2023-02-20T14:42:20;8.23;;;1.23;;
261;SDS011;114;48.260;10.988;2023-02-20T14:44:48;1.83;;;1.10;;
261;SDS011;114;48.260;10.988;2023-02-20T14:47:27;3.67;;;1.37;;
261;SDS011;114;48.260;10.988;2023-02-20T14:49:58;4.00;;;0.90;;
261;SDS011;114;48.260;10.988;2023-02-20T14:52:42;4.00;;;1.20;;
261;SDS011;114;48.260;10.988;2023-02-20T14:55:13;0.90;;;0.60;;
261;SDS011;114;48.260;10.988;2023-02-20T14:57:40;1.67;;;0.80;;
261;SDS011;114;48.260;10.988;2023-02-20T15:02:41;1.87;;;1.30;;
261;SDS011;114;48.260;10.988;2023-02-20T15:05:09;2.53;;;0.83;;
261;SDS011;114;48.260;10.988;2023-02-20T15:07:40;1.90;;;0.87;;
261;SDS011;114;48.260;10.988;2023-02-20T15:10:24;2.53;;;0.93;;
261;SDS011;114;48.260;10.988;2023-02-20T15:13:10;1.37;;;1.20;;
261;SDS011;114;48.260;10.988;2023-02-20T15:15:40;2.00;;;0.90;;
261;SDS011;114;48.260;10.988;2023-02-20T15:18:10;1.20;;;0.83;;
261;SDS011;114;48.260;10.988;2023-02-20T15:20:44;10.63;;;1.23;;
261;SDS011;114;48.260;10.988;2023-02-20T15:25:40;2.80;;;0.93;;
261;SDS011;114;48.260;10.988;2023-02-20T15:33:33;8.17;;;1.07;;
261;SDS011;114;48.260;10.988;2023-02-20T15:36:25;3.40;;;1.10;;
261;SDS011;114;48.260;10.988;2023-02-20T15:38:52;3.20;;;1.17;;
261;SDS011;114;48.260;10.988;2023-02-20T15:41:18;1.60;;;1.10;;
261;SDS011;114;48.260;10.988;2023-02-20T15:43:45;2.53;;;0.90;;
261;SDS011;114;48.260;10.988;2023-02-20T15:46:12;2.30;;;2.10;;
261;SDS011;114;48.260;10.988;2023-02-20T15:48:39;1.77;;;1.63;;
261;SDS011;114;48.260;10.988;2023-02-20T15:51:05;2.60;;;1.70;;
261;SDS011;114;48.260;10.988;2023-02-20T15:53:33;3.57;;;2.87;;
261;SDS011;114;48.260;10.988;2023-02-20T15:56:00;1.43;;;1.07;;
261;SDS011;114;48.260;10.988;2023-02-20T16:01:00;2.60;;;2.40;;
261;SDS011;114;48.260;10.988;2023-02-20T16:03:28;4.70;;;2.47;;
261;SDS011;114;48.260;10.988;2023-02-20T16:05:55;2.93;;;1.57;;
261;SDS011;114;48.260;10.988;2023-02-20T16:08:22;5.23;;;4.43;;
261;SDS011;114;48.260;10.988;2023-02-20T16:10:49;16.20;;;8.87;;
261;SDS011;114;48.260;10.988;2023-02-20T16:15:55;2.40;;;1.10;;
261;SDS011;114;48.260;10.988;2023-02-20T16:18:21;3.50;;;2.13;;
261;SDS011;114;48.260;10.988;2023-02-20T16:20:48;7.43;;;1.70;;
261;SDS011;114;48.260;10.988;2023-02-20T16:23:15;2.27;;;1.13;;
261;SDS011;114;48.260;10.988;2023-02-20T16:25:41;2.40;;;2.20;;
261;SDS011;114;48.260;10.988;2023-02-20T16:28:07;2.03;;;1.90;;
261;SDS011;114;48.260;10.988;2023-02-20T16:30:34;3.90;;;1.60;;
261;SDS011;114;48.260;10.988;2023-02-20T16:33:12;5.10;;;3.70;;
261;SDS011;114;48.260;10.988;2023-02-20T16:35:43;8.10;;;2.67;;
261;SDS011;114;48.260;10.988;2023-02-20T16:38:10;9.47;;;2.80;;
261;SDS011;114;48.260;10.988;2023-02-20T16:40:36;6.77;;;3.67;;
261;SDS011;114;48.260;10.988;2023-02-20T16:43:02;14.07;;;4.87;;
261;SDS011;114;48.260;10.988;2023-02-20T16:45:31;8.37;;;3.60;;
261;SDS011;114;48.260;10.988;2023-02-20T16:47:58;12.93;;;4.50;;
261;SDS011;114;48.260;10.988;2023-02-20T16:50:25;7.13;;;2.53;;
261;SDS011;114;48.260;10.988;2023-02-20T16:52:54;3.63;;;2.40;;
261;SDS011;114;48.260;10.988;2023-02-20T16:55:23;1.67;;;1.53;;
261;SDS011;114;48.260;10.988;2023-02-20T16:58:08;1.70;;;1.50;;
261;SDS011;114;48.260;10.988;2023-02-20T17:00:35;4.67;;;2.00;;
261;SDS011;114;48.260;10.988;2023-02-20T17:03:05;5.00;;;1.40;;
261;SDS011;114;48.260;10.988;2023-02-20T17:05:33;2.00;;;1.90;;
261;SDS011;114;48.260;10.988;2023-02-20T17:08:00;2.80;;;2.60;;
261;SDS011;114;48.260;10.988;2023-02-20T17:10:28;5.35;;;3.80;;
261;SDS011;114;48.260;10.988;2023-02-20T17:12:54;6.33;;;3.40;;
261;SDS011;114;48.260;10.988;2023-02-20T17:15:21;8.67;;;5.70;;
261;SDS011;114;48.260;10.988;2023-02-20T17:17:48;13.40;;;7.50;;
261;SDS011;114;48.260;10.988;2023-02-20T17:20:18;10.43;;;6.37;;
261;SDS011;114;48.260;10.988;2023-02-20T17:22:47;4.87;;;3.90;;
261;SDS011;114;48.260;10.988;2023-02-20T17:25:16;8.37;;;6.20;;
261;SDS011;114;48.260;10.988;2023-02-20T17:27:44;11.30;;;7.43;;
261;SDS011;114;48.260;10.988;2023-02-20T17:30:10;5.33;;;4.67;;
261;SDS011;114;48.260;10.988;2023-02-20T17:32:37;5.30;;;4.20;;
261;SDS011;114;48.260;10.988;2023-02-20T17:35:04;15.40;;;9.40;;
261;SDS011;114;48.260;10.988;2023-02-20T17:37:30;15.27;;;10.33;;
261;SDS011;114;48.260;10.988;2023-02-20T17:39:57;22.27;;;13.60;;
261;SDS011;114;48.260;10.988;2023-02-20T17:42:24;29.33;;;14.70;;
261;SDS011;114;48.260;10.988;2023-02-20T17:44:51;25.17;;;13.67;;
261;SDS011;114;48.260;10.988;2023-02-20T17:47:17;24.77;;;14.00;;
261;SDS011;114;48.260;10.988;2023-02-20T17:49:43;34.20;;;15.37;;
261;SDS011;114;48.260;10.988;2023-02-20T17:52:14;25.17;;;13.00;;
261;SDS011;114;48.260;10.988;2023-02-20T17:54:43;22.80;;;13.13;;
261;SDS011;114;48.260;10.988;2023-02-20T17:57:14;15.33;;;8.23;;
261;SDS011;114;48.260;10.988;2023-02-20T17:59:43;11.97;;;5.80;;
261;SDS011;114;48.260;10.988;2023-02-20T18:02:10;19.23;;;8.20;;
261;SDS011;114;48.260;10.988;2023-02-20T18:04:38;15.03;;;8.33;;
261;SDS011;114;48.260;10.988;2023-02-20T18:07:05;9.20;;;5.17;;
261;SDS011;114;48.260;10.988;2023-02-20T18:09:31;6.90;;;1.53;;
261;SDS011;114;48.260;10.988;2023-02-20T18:11:57;1.70;;;1.50;;
261;SDS011;114;48.260;10.988;2023-02-20T18:14:24;1.90;;;1.80;;
261;SDS011;114;48.260;10.988;2023-02-20T18:16:49;6.87;;;5.17;;